createdAt,value
2018-09-02T00:00:25.836Z,0.00
2018-09-02T00:01:25.862Z,0.00
2018-09-02T00:02:25.875Z,0.00
2018-09-02T00:03:25.898Z,0.00
2018-09-02T00:04:25.927Z,0.00
2018-09-02T00:05:25.938Z,0.00
2018-09-02T00:06:25.963Z,0.00
2018-09-02T00:07:25.974Z,0.00
2018-09-02T00:08:26.003Z,0.00
2018-09-02T00:09:26.016Z,0.00
2018-09-02T00:10:26.045Z,0.00
2018-09-02T00:11:26.065Z,0.00
2018-09-02T00:12:26.081Z,0.00
2018-09-02T00:13:26.096Z,0.00
2018-09-02T00:14:26.124Z,0.00
2018-09-02T00:15:26.150Z,0.00
2018-09-02T00:16:26.163Z,0.00
2018-09-02T00:17:26.188Z,0.00
2018-09-02T00:18:26.210Z,0.00
2018-09-02T00:19:26.238Z,0.00
2018-09-02T00:20:26.280Z,0.00
2018-09-02T00:21:26.269Z,0.00
2018-09-02T00:22:26.295Z,0.00
2018-09-02T00:23:26.306Z,0.00
2018-09-02T00:24:26.330Z,0.00
2018-09-02T00:25:26.343Z,0.00
2018-09-02T00:26:26.372Z,0.00
2018-09-02T00:27:26.385Z,0.00
2018-09-02T00:28:26.408Z,0.00
2018-09-02T00:29:26.423Z,0.00
2018-09-02T00:30:26.514Z,0.00
2018-09-02T00:31:26.479Z,0.00
2018-09-02T00:32:26.503Z,0.00
2018-09-02T00:33:26.516Z,0.00
2018-09-02T00:34:26.526Z,0.00
2018-09-02T00:35:26.552Z,0.00
2018-09-02T00:36:26.571Z,0.00
2018-09-02T00:37:26.599Z,0.00
2018-09-02T00:38:26.618Z,0.00
2018-09-02T00:39:26.636Z,0.00
2018-09-02T00:40:26.657Z,0.00
2018-09-02T00:41:26.670Z,0.00
2018-09-02T00:42:26.700Z,0.00
2018-09-02T00:43:26.714Z,0.00
2018-09-02T00:44:26.735Z,0.00
2018-09-02T00:45:26.749Z,0.00
2018-09-02T00:46:26.791Z,0.00
2018-09-02T00:47:26.804Z,0.00
2018-09-02T00:48:26.821Z,0.00
2018-09-02T00:49:26.848Z,0.00
2018-09-02T00:50:26.861Z,0.00
2018-09-02T00:51:26.880Z,0.00
2018-09-02T00:52:26.897Z,0.00
2018-09-02T00:53:26.924Z,0.00
2018-09-02T00:54:26.945Z,0.00
2018-09-02T00:55:26.958Z,0.00
2018-09-02T00:56:26.986Z,0.00
2018-09-02T00:57:27.000Z,0.00
2018-09-02T00:58:27.030Z,0.00
2018-09-02T00:59:27.043Z,0.00
2018-09-02T01:00:27.077Z,0.00
2018-09-02T01:01:27.091Z,0.00
2018-09-02T01:02:27.114Z,0.00
2018-09-02T01:03:27.138Z,0.00
2018-09-02T01:04:27.145Z,0.00
2018-09-02T01:05:27.172Z,0.00
2018-09-02T01:06:27.182Z,0.00
2018-09-02T01:07:27.207Z,0.00
2018-09-02T01:08:27.240Z,0.00
2018-09-02T01:09:27.252Z,0.00
2018-09-02T01:10:27.274Z,0.00
2018-09-02T01:11:27.288Z,0.00
2018-09-02T01:12:27.312Z,0.00
2018-09-02T01:13:27.331Z,0.00
2018-09-02T01:14:27.356Z,0.00
2018-09-02T01:15:27.384Z,0.00
2018-09-02T01:16:27.390Z,0.00
2018-09-02T01:17:27.417Z,0.00
2018-09-02T01:18:27.435Z,0.00
2018-09-02T01:19:27.460Z,0.00
2018-09-02T01:20:27.488Z,0.00
2018-09-02T01:21:27.502Z,0.00
2018-09-02T01:22:27.524Z,0.00
2018-09-02T01:23:27.536Z,0.00
2018-09-02T01:24:27.564Z,0.00
2018-09-02T01:25:27.579Z,0.00
2018-09-02T01:26:27.600Z,0.00
2018-09-02T01:27:27.614Z,0.00
2018-09-02T01:28:27.641Z,0.00
2018-09-02T01:29:27.668Z,0.00
2018-09-02T01:30:27.686Z,0.00
2018-09-02T01:31:27.711Z,0.00
2018-09-02T01:32:27.724Z,0.00
2018-09-02T01:33:27.750Z,0.00
2018-09-02T01:34:27.760Z,0.00
2018-09-02T01:35:27.786Z,0.00
2018-09-02T01:36:27.810Z,0.00
2018-09-02T01:37:27.823Z,0.00
2018-09-02T01:38:27.856Z,0.00
2018-09-02T01:39:27.867Z,0.00
2018-09-02T01:40:27.891Z,0.00
2018-09-02T01:41:27.904Z,0.00
2018-09-02T01:42:27.933Z,0.00
2018-09-02T01:43:27.949Z,0.00
2018-09-02T01:44:27.971Z,0.00
2018-09-02T01:45:27.999Z,0.00
2018-09-02T01:46:28.007Z,0.00
2018-09-02T01:47:28.032Z,0.00
2018-09-02T01:48:28.051Z,0.00
2018-09-02T01:49:28.077Z,0.00
2018-09-02T01:50:28.102Z,0.00
2018-09-02T01:51:28.113Z,0.00
2018-09-02T01:52:28.128Z,0.00
2018-09-02T01:53:28.153Z,0.00
2018-09-02T01:54:28.184Z,0.00
2018-09-02T01:55:28.200Z,0.00
2018-09-02T01:56:28.216Z,0.00
2018-09-02T01:57:28.230Z,0.00
2018-09-02T01:58:28.261Z,0.00
2018-09-02T01:59:28.273Z,0.00
2018-09-02T02:00:28.301Z,0.00
2018-09-02T02:01:28.315Z,0.00
2018-09-02T02:02:28.336Z,0.00
2018-09-02T02:03:28.352Z,0.00
2018-09-02T02:04:28.393Z,0.00
2018-09-02T02:05:28.405Z,0.00
2018-09-02T02:06:28.417Z,0.00
2018-09-02T02:07:28.441Z,0.00
2018-09-02T02:08:28.452Z,0.00
2018-09-02T02:09:28.480Z,0.00
2018-09-02T02:10:28.496Z,0.00
2018-09-02T02:11:28.523Z,0.00
2018-09-02T02:12:28.535Z,0.00
2018-09-02T02:13:28.559Z,0.00
2018-09-02T02:14:28.589Z,0.00
2018-09-02T02:15:28.603Z,0.00
2018-09-02T02:16:28.628Z,0.00
2018-09-02T02:17:28.640Z,0.00
2018-09-02T02:18:28.676Z,0.00
2018-09-02T02:19:28.677Z,0.00
2018-09-02T02:20:28.708Z,0.00
2018-09-02T02:21:28.780Z,0.00
2018-09-02T02:22:28.742Z,0.00
2018-09-02T02:23:28.758Z,0.00
2018-09-02T02:24:28.787Z,0.00
2018-09-02T02:25:28.809Z,0.00
2018-09-02T02:26:28.827Z,0.00
2018-09-02T02:27:28.851Z,0.00
2018-09-02T02:28:28.859Z,0.00
2018-09-02T02:29:28.886Z,0.00
2018-09-02T02:30:28.904Z,0.00
2018-09-02T02:31:28.929Z,0.00
2018-09-02T02:32:28.945Z,0.00
2018-09-02T02:33:28.971Z,0.00
2018-09-02T02:34:28.980Z,0.00
2018-09-02T02:35:29.005Z,0.00
2018-09-02T02:36:29.022Z,0.00
2018-09-02T02:37:29.051Z,0.00
2018-09-02T02:38:29.069Z,0.00
2018-09-02T02:39:29.083Z,0.00
2018-09-02T02:40:29.110Z,0.00
2018-09-02T02:41:29.126Z,0.00
2018-09-02T02:42:29.155Z,0.00
2018-09-02T02:43:29.168Z,0.00
2018-09-02T02:44:29.187Z,0.00
2018-09-02T02:45:29.202Z,0.00
2018-09-02T02:46:29.232Z,0.00
2018-09-02T02:47:29.258Z,0.00
2018-09-02T02:48:29.272Z,0.00
2018-09-02T02:49:29.299Z,0.00
2018-09-02T02:50:29.308Z,0.00
2018-09-02T02:51:29.334Z,0.00
2018-09-02T02:52:29.352Z,0.00
2018-09-02T02:53:29.376Z,0.00
2018-09-02T02:54:29.387Z,0.00
2018-09-02T02:55:29.413Z,0.00
2018-09-02T02:56:29.424Z,0.00
2018-09-02T02:57:29.449Z,0.00
2018-09-02T02:58:29.470Z,0.00
2018-09-02T02:59:29.494Z,0.00
2018-09-02T03:00:29.518Z,0.00
2018-09-02T03:01:29.544Z,0.00
2018-09-02T03:02:29.562Z,0.00
2018-09-02T03:03:29.578Z,0.00
2018-09-02T03:04:29.598Z,0.00
2018-09-02T03:05:29.611Z,0.00
2018-09-02T03:06:29.636Z,0.00
2018-09-02T03:07:29.647Z,0.00
2018-09-02T03:08:29.678Z,0.00
2018-09-02T03:09:29.704Z,0.00
2018-09-02T03:10:29.712Z,0.00
2018-09-02T03:11:29.739Z,0.00
2018-09-02T03:12:29.755Z,0.00
2018-09-02T03:13:29.781Z,0.00
2018-09-02T03:14:29.797Z,0.00
2018-09-02T03:15:29.823Z,0.00
2018-09-02T03:16:29.843Z,0.00
2018-09-02T03:17:29.857Z,0.00
2018-09-02T03:18:29.887Z,0.00
2018-09-02T03:19:29.900Z,0.00
2018-09-02T03:20:29.929Z,0.00
2018-09-02T03:21:29.942Z,0.00
2018-09-02T03:22:29.964Z,0.00
2018-09-02T03:23:29.977Z,0.00
2018-09-02T03:24:30.007Z,0.00
2018-09-02T03:25:30.033Z,0.00
2018-09-02T03:26:30.052Z,0.00
2018-09-02T03:27:30.069Z,0.00
2018-09-02T03:28:30.093Z,0.00
2018-09-02T03:29:30.107Z,0.00
2018-09-02T03:30:30.124Z,0.00
2018-09-02T03:31:30.157Z,0.00
2018-09-02T03:32:30.160Z,0.00
2018-09-02T03:33:30.186Z,0.00
2018-09-02T03:34:30.218Z,0.00
2018-09-02T03:35:30.231Z,0.00
2018-09-02T03:36:30.255Z,0.00
2018-09-02T03:37:30.268Z,0.00
2018-09-02T03:38:30.289Z,0.00
2018-09-02T03:39:30.303Z,0.00
2018-09-02T03:40:30.331Z,0.00
2018-09-02T03:41:30.355Z,0.00
2018-09-02T03:42:30.373Z,0.00
2018-09-02T03:43:30.398Z,0.00
2018-09-02T03:44:30.414Z,0.00
2018-09-02T03:45:30.440Z,4.00
2018-09-02T03:46:30.448Z,4.00
2018-09-02T03:47:30.474Z,4.00
2018-09-02T03:48:30.491Z,4.00
2018-09-02T03:49:30.517Z,4.00
2018-09-02T03:50:30.525Z,4.00
2018-09-02T03:51:30.551Z,8.00
2018-09-02T03:52:30.568Z,8.00
2018-09-02T03:53:30.594Z,8.00
2018-09-02T03:54:30.624Z,8.00
2018-09-02T03:55:30.649Z,12.00
2018-09-02T03:56:30.659Z,12.00
2018-09-02T03:57:30.673Z,16.00
2018-09-02T03:58:30.702Z,20.00
2018-09-02T03:59:30.716Z,20.00
2018-09-02T04:00:30.743Z,24.00
2018-09-02T04:01:30.754Z,28.00
2018-09-02T04:02:30.776Z,32.00
2018-09-02T04:03:30.801Z,36.00
2018-09-02T04:04:30.820Z,48.00
2018-09-02T04:05:30.846Z,52.00
2018-09-02T04:06:30.856Z,60.00
2018-09-02T04:07:30.882Z,68.00
2018-09-02T04:08:30.894Z,76.00
2018-09-02T04:09:30.920Z,84.00
2018-09-02T04:10:30.937Z,92.00
2018-09-02T04:11:31.003Z,104.00
2018-09-02T04:12:30.979Z,116.00
2018-09-02T04:13:30.997Z,128.00
2018-09-02T04:14:31.029Z,140.00
2018-09-02T04:15:31.043Z,152.00
2018-09-02T04:16:31.070Z,168.00
2018-09-02T04:17:31.103Z,188.00
2018-09-02T04:18:31.107Z,208.00
2018-09-02T04:19:31.119Z,232.00
2018-09-02T04:20:31.147Z,256.00
2018-09-02T04:21:31.164Z,284.00
2018-09-02T04:22:31.182Z,316.00
2018-09-02T04:23:31.198Z,344.00
2018-09-02T04:24:31.224Z,372.00
2018-09-02T04:25:31.249Z,396.00
2018-09-02T04:26:31.267Z,416.00
2018-09-02T04:27:31.293Z,440.00
2018-09-02T04:28:31.303Z,456.00
2018-09-02T04:29:31.328Z,476.00
2018-09-02T04:30:31.346Z,504.00
2018-09-02T04:31:31.387Z,532.00
2018-09-02T04:32:31.384Z,560.00
2018-09-02T04:33:31.457Z,588.00
2018-09-02T04:34:31.419Z,612.00
2018-09-02T04:35:31.444Z,640.00
2018-09-02T04:36:31.466Z,664.00
2018-09-02T04:37:31.490Z,684.00
2018-09-02T04:38:31.513Z,708.00
2018-09-02T04:39:31.526Z,732.00
2018-09-02T04:40:31.548Z,760.00
2018-09-02T04:41:31.563Z,776.00
2018-09-02T04:42:31.593Z,796.00
2018-09-02T04:43:31.606Z,808.00
2018-09-02T04:44:31.630Z,824.00
2018-09-02T04:45:31.645Z,836.00
2018-09-02T04:46:31.675Z,856.00
2018-09-02T04:47:31.692Z,880.00
2018-09-02T04:48:31.722Z,908.00
2018-09-02T04:49:31.737Z,932.00
2018-09-02T04:50:31.747Z,952.00
2018-09-02T04:51:31.776Z,976.00
2018-09-02T04:52:31.805Z,1004.00
2018-09-02T04:53:31.818Z,1052.00
2018-09-02T04:54:31.890Z,1092.00
2018-09-02T04:55:31.853Z,1136.00
2018-09-02T04:56:31.864Z,1176.00
2018-09-02T04:57:31.890Z,1232.00
2018-09-02T04:58:31.909Z,1296.00
2018-09-02T04:59:31.936Z,1376.00
2018-09-02T05:00:31.945Z,1468.00
2018-09-02T05:01:31.969Z,1548.00
2018-09-02T05:02:32.005Z,1608.00
2018-09-02T05:03:32.014Z,1640.00
2018-09-02T05:04:32.029Z,1684.00
2018-09-02T05:05:32.054Z,1756.00
2018-09-02T05:06:32.090Z,1848.00
2018-09-02T05:07:32.090Z,1948.00
2018-09-02T05:08:32.119Z,2064.00
2018-09-02T05:09:32.131Z,2188.00
2018-09-02T05:10:32.152Z,2320.00
2018-09-02T05:11:32.167Z,2464.00
2018-09-02T05:12:32.194Z,2592.00
2018-09-02T05:13:32.208Z,2720.00
2018-09-02T05:14:32.242Z,2820.00
2018-09-02T05:15:32.251Z,2904.00
2018-09-02T05:16:32.279Z,2980.00
2018-09-02T05:17:32.301Z,3068.00
2018-09-02T05:18:32.317Z,3200.00
2018-09-02T05:19:32.360Z,3372.00
2018-09-02T05:20:32.355Z,3548.00
2018-09-02T05:21:32.381Z,3728.00
2018-09-02T05:22:32.389Z,3904.00
2018-09-02T05:23:32.417Z,4032.00
2018-09-02T05:24:32.436Z,4124.00
2018-09-02T05:25:32.462Z,4160.00
2018-09-02T05:26:32.487Z,4196.00
2018-09-02T05:27:32.497Z,4204.00
2018-09-02T05:28:32.538Z,4188.00
2018-09-02T05:29:32.534Z,4176.00
2018-09-02T05:30:32.566Z,4192.00
2018-09-02T05:31:32.580Z,4176.00
2018-09-02T05:32:32.599Z,4120.00
2018-09-02T05:33:32.630Z,4076.00
2018-09-02T05:34:32.643Z,4052.00
2018-09-02T05:35:32.669Z,3980.00
2018-09-02T05:36:32.685Z,3876.00
2018-09-02T05:37:32.711Z,3768.00
2018-09-02T05:38:32.721Z,3684.00
2018-09-02T05:39:32.746Z,3632.00
2018-09-02T05:40:32.763Z,3612.00
2018-09-02T05:41:32.793Z,3644.00
2018-09-02T05:42:32.822Z,3744.00
2018-09-02T05:43:32.823Z,3912.00
2018-09-02T05:44:32.852Z,4112.00
2018-09-02T05:45:32.864Z,4320.00
2018-09-02T05:46:32.894Z,4516.00
2018-09-02T05:47:32.921Z,4660.00
2018-09-02T05:48:32.960Z,4716.00
2018-09-02T05:49:32.961Z,4744.00
2018-09-02T05:50:32.970Z,4764.00
2018-09-02T05:51:32.996Z,4776.00
2018-09-02T05:52:33.019Z,4804.00
2018-09-02T05:53:33.041Z,4804.00
2018-09-02T05:54:33.064Z,4764.00
2018-09-02T05:55:33.076Z,4664.00
2018-09-02T05:56:33.113Z,4500.00
2018-09-02T05:57:33.195Z,4320.00
2018-09-02T05:58:33.145Z,4148.00
2018-09-02T05:59:33.170Z,4004.00
2018-09-02T06:00:33.180Z,3900.00
2018-09-02T06:01:33.207Z,3828.00
2018-09-02T06:02:33.228Z,3800.00
2018-09-02T06:03:33.244Z,3804.00
2018-09-02T06:04:33.271Z,3820.00
2018-09-02T06:05:33.285Z,3840.00
2018-09-02T06:06:33.308Z,3848.00
2018-09-02T06:07:33.323Z,3844.00
2018-09-02T06:08:33.350Z,3828.00
2018-09-02T06:09:33.380Z,3804.00
2018-09-02T06:10:33.405Z,3776.00
2018-09-02T06:11:33.419Z,3740.00
2018-09-02T06:12:33.439Z,3720.00
2018-09-02T06:13:33.452Z,3696.00
2018-09-02T06:14:33.484Z,3716.00
2018-09-02T06:15:33.496Z,3768.00
2018-09-02T06:16:33.523Z,3852.00
2018-09-02T06:17:33.548Z,3948.00
2018-09-02T06:18:33.560Z,4032.00
2018-09-02T06:19:33.585Z,4100.00
2018-09-02T06:20:33.602Z,4148.00
2018-09-02T06:21:33.629Z,4164.00
2018-09-02T06:22:33.649Z,4168.00
2018-09-02T06:23:33.663Z,4180.00
2018-09-02T06:24:33.687Z,4212.00
2018-09-02T06:25:33.700Z,4292.00
2018-09-02T06:26:33.730Z,4412.00
2018-09-02T06:27:33.756Z,4560.00
2018-09-02T06:28:33.768Z,4732.00
2018-09-02T06:29:33.794Z,4856.00
2018-09-02T06:30:33.812Z,4888.00
2018-09-02T06:31:33.838Z,4976.00
2018-09-02T06:32:33.862Z,4976.00
2018-09-02T06:33:33.887Z,4968.00
2018-09-02T06:34:33.917Z,5028.00
2018-09-02T06:35:33.948Z,5200.00
2018-09-02T06:36:33.940Z,5436.00
2018-09-02T06:37:33.988Z,5676.00
2018-09-02T06:38:33.981Z,5928.00
2018-09-02T06:39:34.173Z,6204.00
2018-09-02T06:40:34.032Z,6520.00
2018-09-02T06:41:34.043Z,6896.00
2018-09-02T06:42:34.074Z,7272.00
2018-09-02T06:43:34.088Z,7576.00
2018-09-02T06:44:34.108Z,7836.00
2018-09-02T06:45:34.141Z,8084.00
2018-09-02T06:46:34.150Z,8264.00
2018-09-02T06:47:34.176Z,8408.00
2018-09-02T06:48:34.193Z,8600.00
2018-09-02T06:49:34.220Z,8852.00
2018-09-02T06:50:34.240Z,9136.00
2018-09-02T06:51:34.252Z,9492.00
2018-09-02T06:52:34.280Z,9928.00
2018-09-02T06:53:34.307Z,10436.00
2018-09-02T06:54:34.316Z,10984.00
2018-09-02T06:55:34.343Z,11556.00
2018-09-02T06:56:34.370Z,12156.00
2018-09-02T06:57:34.383Z,12648.00
2018-09-02T06:58:34.450Z,12888.00
2018-09-02T06:59:34.439Z,13264.00
2018-09-02T07:00:34.447Z,13352.00
2018-09-02T07:01:34.477Z,13300.00
2018-09-02T07:02:34.506Z,13120.00
2018-09-02T07:03:34.516Z,12776.00
2018-09-02T07:04:34.544Z,12116.00
2018-09-02T07:05:34.570Z,11444.00
2018-09-02T07:06:34.615Z,10828.00
2018-09-02T07:07:34.611Z,10300.00
2018-09-02T07:08:34.635Z,10208.00
2018-09-02T07:09:34.650Z,10132.00
2018-09-02T07:10:34.671Z,10048.00
2018-09-02T07:11:34.697Z,9840.00
2018-09-02T07:12:34.709Z,9660.00
2018-09-02T07:13:34.737Z,9512.00
2018-09-02T07:14:34.764Z,9584.00
2018-09-02T07:15:34.791Z,9736.00
2018-09-02T07:16:34.803Z,10036.00
2018-09-02T07:17:34.828Z,10564.00
2018-09-02T07:18:34.858Z,11212.00
2018-09-02T07:19:35.122Z,11888.00
2018-09-02T07:20:34.896Z,12428.00
2018-09-02T07:21:34.923Z,13052.00
2018-09-02T07:22:34.943Z,13304.00
2018-09-02T07:23:34.957Z,13152.00
2018-09-02T07:24:34.986Z,12688.00
2018-09-02T07:25:35.000Z,12352.00
2018-09-02T07:26:35.022Z,11876.00
2018-09-02T07:27:35.048Z,11456.00
2018-09-02T07:28:35.076Z,11152.00
2018-09-02T07:29:35.095Z,11104.00
2018-09-02T07:30:35.119Z,11324.00
2018-09-02T07:31:35.209Z,11696.00
2018-09-02T07:32:35.153Z,12260.00
2018-09-02T07:33:35.180Z,12756.00
2018-09-02T07:34:35.209Z,12936.00
2018-09-02T07:35:35.238Z,12680.00
2018-09-02T07:36:35.250Z,12360.00
2018-09-02T07:37:35.276Z,12160.00
2018-09-02T07:38:35.286Z,11836.00
2018-09-02T07:39:35.311Z,11776.00
2018-09-02T07:40:35.342Z,12092.00
2018-09-02T07:41:35.356Z,12828.00
2018-09-02T07:42:35.377Z,13708.00
2018-09-02T07:43:35.447Z,13952.00
2018-09-02T07:44:35.430Z,14540.00
2018-09-02T07:45:35.441Z,13932.00
2018-09-02T07:46:35.470Z,14728.00
2018-09-02T07:47:35.496Z,14612.00
2018-09-02T07:48:35.508Z,14144.00
2018-09-02T07:49:35.546Z,14460.00
2018-09-02T07:50:35.563Z,14796.00
2018-09-02T07:51:35.590Z,14792.00
2018-09-02T07:52:35.601Z,15156.00
2018-09-02T07:53:35.627Z,16196.00
2018-09-02T07:54:35.750Z,16976.00
2018-09-02T07:55:35.662Z,17332.00
2018-09-02T07:56:35.688Z,16912.00
2018-09-02T07:57:35.714Z,17112.00
2018-09-02T07:58:35.756Z,17172.00
2018-09-02T07:59:35.760Z,17360.00
2018-09-02T08:00:35.785Z,17084.00
2018-09-02T08:01:35.812Z,17408.00
2018-09-02T08:02:35.874Z,17400.00
2018-09-02T08:03:35.846Z,17420.00
2018-09-02T08:04:35.874Z,18048.00
2018-09-02T08:05:35.914Z,18560.00
2018-09-02T08:06:35.922Z,18752.00
2018-09-02T08:07:35.937Z,18976.00
2018-09-02T08:08:35.966Z,18944.00
2018-09-02T08:09:35.990Z,18688.00
2018-09-02T08:10:36.020Z,18464.00
2018-09-02T08:11:36.046Z,18272.00
2018-09-02T08:12:36.103Z,17400.00
2018-09-02T08:13:36.081Z,16772.00
2018-09-02T08:14:36.112Z,15852.00
2018-09-02T08:15:36.126Z,14716.00
2018-09-02T08:16:36.149Z,13360.00
2018-09-02T08:17:36.175Z,12108.00
2018-09-02T08:18:36.197Z,11296.00
2018-09-02T08:19:36.224Z,11084.00
2018-09-02T08:20:36.242Z,11136.00
2018-09-02T08:21:36.268Z,10892.00
2018-09-02T08:22:36.291Z,10244.00
2018-09-02T08:23:36.315Z,9484.00
2018-09-02T08:24:36.328Z,8956.00
2018-09-02T08:25:36.355Z,8800.00
2018-09-02T08:26:36.399Z,8812.00
2018-09-02T08:27:36.409Z,8916.00
2018-09-02T08:28:36.419Z,8980.00
2018-09-02T08:29:36.449Z,9156.00
2018-09-02T08:30:36.474Z,9544.00
2018-09-02T08:31:36.501Z,8948.00
2018-09-02T08:32:36.529Z,9160.00
2018-09-02T08:33:36.543Z,9892.00
2018-09-02T08:34:36.564Z,9840.00
2018-09-02T08:35:36.594Z,9400.00
2018-09-02T08:36:36.619Z,8800.00
2018-09-02T08:37:36.631Z,8608.00
2018-09-02T08:38:36.691Z,8636.00
2018-09-02T08:39:36.679Z,8684.00
2018-09-02T08:40:36.720Z,9204.00
2018-09-02T08:41:36.720Z,9288.00
2018-09-02T08:42:36.751Z,8984.00
2018-09-02T08:43:36.778Z,8508.00
2018-09-02T08:44:36.799Z,8404.00
2018-09-02T08:45:36.813Z,7872.00
2018-09-02T08:46:36.842Z,7200.00
2018-09-02T08:47:36.882Z,6604.00
2018-09-02T08:48:36.897Z,6108.00
2018-09-02T08:49:36.917Z,5884.00
2018-09-02T08:50:36.958Z,5868.00
2018-09-02T08:51:36.953Z,5852.00
2018-09-02T08:52:36.985Z,5700.00
2018-09-02T08:53:37.012Z,5392.00
2018-09-02T08:54:37.021Z,5184.00
2018-09-02T08:55:37.046Z,5296.00
2018-09-02T08:56:37.074Z,5732.00
2018-09-02T08:57:37.099Z,6048.00
2018-09-02T08:58:37.116Z,5916.00
2018-09-02T08:59:37.141Z,5828.00
2018-09-02T09:00:37.164Z,5984.00
2018-09-02T09:01:37.216Z,6004.00
2018-09-02T09:02:37.208Z,5952.00
2018-09-02T09:03:37.236Z,6084.00
2018-09-02T09:04:37.258Z,6312.00
2018-09-02T09:05:37.272Z,6604.00
2018-09-02T09:06:37.297Z,7100.00
2018-09-02T09:07:37.432Z,7528.00
2018-09-02T09:08:37.381Z,7636.00
2018-09-02T09:09:37.365Z,7672.00
2018-09-02T09:10:37.399Z,7872.00
2018-09-02T09:11:37.412Z,7892.00
2018-09-02T09:12:37.436Z,7704.00
2018-09-02T09:13:37.450Z,7512.00
2018-09-02T09:14:37.482Z,7380.00
2018-09-02T09:15:37.505Z,7344.00
2018-09-02T09:16:37.580Z,7384.00
2018-09-02T09:17:37.542Z,7696.00
2018-09-02T09:18:37.573Z,8168.00
2018-09-02T09:19:37.598Z,8316.00
2018-09-02T09:20:37.628Z,8060.00
2018-09-02T09:21:37.833Z,7860.00
2018-09-02T09:22:37.678Z,7880.00
2018-09-02T09:23:37.688Z,8040.00
2018-09-02T09:24:37.707Z,8016.00
2018-09-02T09:25:37.732Z,7788.00
2018-09-02T09:26:37.750Z,7600.00
2018-09-02T09:27:37.776Z,7768.00
2018-09-02T09:28:37.792Z,8464.00
2018-09-02T09:29:37.818Z,9240.00
2018-09-02T09:30:37.848Z,9924.00
2018-09-02T09:31:37.877Z,10892.00
2018-09-02T09:32:37.883Z,11648.00
2018-09-02T09:33:37.908Z,11748.00
2018-09-02T09:34:37.938Z,10928.00
2018-09-02T09:35:37.964Z,10196.00
2018-09-02T09:36:37.977Z,9272.00
2018-09-02T09:37:38.003Z,8304.00
2018-09-02T09:38:38.024Z,7592.00
2018-09-02T09:39:38.051Z,6808.00
2018-09-02T09:40:38.072Z,6084.00
2018-09-02T09:41:38.095Z,5716.00
2018-09-02T09:42:38.117Z,5488.00
2018-09-02T09:43:38.143Z,5108.00
2018-09-02T09:44:38.159Z,4760.00
2018-09-02T09:45:38.183Z,4476.00
2018-09-02T09:46:38.211Z,4288.00
2018-09-02T09:47:38.238Z,4412.00
2018-09-02T09:48:38.246Z,4716.00
2018-09-02T09:49:38.272Z,5016.00
2018-09-02T09:50:38.302Z,5380.00
2018-09-02T09:51:38.328Z,5760.00
2018-09-02T09:52:38.343Z,6084.00
2018-09-02T09:53:38.370Z,6444.00
2018-09-02T09:54:38.392Z,6932.00
2018-09-02T09:55:38.487Z,7620.00
2018-09-02T09:56:38.433Z,8416.00
2018-09-02T09:57:38.458Z,8852.00
2018-09-02T09:58:38.480Z,8824.00
2018-09-02T09:59:38.520Z,8332.00
2018-09-02T10:00:38.525Z,7568.00
2018-09-02T10:01:38.549Z,6716.00
2018-09-02T10:02:38.579Z,5696.00
2018-09-02T10:03:38.622Z,4784.00
2018-09-02T10:04:38.618Z,4492.00
2018-09-02T10:05:38.656Z,4496.00
2018-09-02T10:06:38.667Z,4604.00
2018-09-02T10:07:38.693Z,4896.00
2018-09-02T10:08:38.703Z,4736.00
2018-09-02T10:09:38.729Z,4448.00
2018-09-02T10:10:38.760Z,4468.00
2018-09-02T10:11:38.810Z,4776.00
2018-09-02T10:12:38.809Z,4812.00
2018-09-02T10:13:38.821Z,4904.00
2018-09-02T10:14:38.853Z,5160.00
2018-09-02T10:15:38.865Z,5424.00
2018-09-02T10:16:38.891Z,5844.00
2018-09-02T10:17:38.916Z,6148.00
2018-09-02T10:18:38.941Z,6304.00
2018-09-02T10:19:38.953Z,6140.00
2018-09-02T10:20:38.981Z,6344.00
2018-09-02T10:21:39.007Z,6552.00
2018-09-02T10:22:39.017Z,6728.00
2018-09-02T10:23:39.042Z,7128.00
2018-09-02T10:24:39.073Z,7312.00
2018-09-02T10:25:39.084Z,7700.00
2018-09-02T10:26:39.114Z,8148.00
2018-09-02T10:27:39.139Z,8500.00
2018-09-02T10:28:39.148Z,8320.00
2018-09-02T10:29:39.174Z,7888.00
2018-09-02T10:30:39.204Z,8292.00
2018-09-02T10:31:39.216Z,9620.00
2018-09-02T10:32:39.294Z,10392.00
2018-09-02T10:33:39.280Z,8824.00
2018-09-02T10:34:39.292Z,7428.00
2018-09-02T10:35:39.306Z,7256.00
2018-09-02T10:36:39.337Z,7908.00
2018-09-02T10:37:39.363Z,8168.00
2018-09-02T10:38:39.370Z,8164.00
2018-09-02T10:39:39.397Z,8072.00
2018-09-02T10:40:39.420Z,8560.00
2018-09-02T10:41:39.434Z,8576.00
2018-09-02T10:42:39.469Z,8548.00
2018-09-02T10:43:39.491Z,8296.00
2018-09-02T10:44:39.501Z,7344.00
2018-09-02T10:45:39.528Z,6980.00
2018-09-02T10:46:39.558Z,6980.00
2018-09-02T10:47:39.572Z,7700.00
2018-09-02T10:48:39.596Z,8240.00
2018-09-02T10:49:39.659Z,9400.00
2018-09-02T10:50:39.631Z,10064.00
2018-09-02T10:51:39.656Z,10176.00
2018-09-02T10:52:39.686Z,10540.00
2018-09-02T10:53:39.700Z,10604.00
2018-09-02T10:54:39.722Z,10636.00
2018-09-02T10:55:39.751Z,11480.00
2018-09-02T10:56:39.764Z,12040.00
2018-09-02T10:57:39.789Z,12372.00
2018-09-02T10:58:39.819Z,13144.00
2018-09-02T10:59:39.857Z,13944.00
2018-09-02T11:00:39.854Z,14184.00
2018-09-02T11:01:39.880Z,14052.00
2018-09-02T11:02:39.909Z,13984.00
2018-09-02T11:03:39.922Z,13936.00
2018-09-02T11:04:39.950Z,13760.00
2018-09-02T11:05:39.975Z,12716.00
2018-09-02T11:06:39.997Z,11612.00
2018-09-02T11:07:40.038Z,11164.00
2018-09-02T11:08:40.165Z,11364.00
2018-09-02T11:09:40.067Z,11632.00
2018-09-02T11:10:40.075Z,12348.00
2018-09-02T11:11:40.101Z,13164.00
2018-09-02T11:12:40.129Z,14068.00
2018-09-02T11:13:40.267Z,14892.00
2018-09-02T11:14:40.173Z,15072.00
2018-09-02T11:15:40.198Z,14880.00
2018-09-02T11:16:40.218Z,15108.00
2018-09-02T11:17:40.232Z,15188.00
2018-09-02T11:18:40.261Z,14656.00
2018-09-02T11:19:40.288Z,13972.00
2018-09-02T11:20:40.315Z,13684.00
2018-09-02T11:21:40.329Z,13764.00
2018-09-02T11:22:40.351Z,14116.00
2018-09-02T11:23:40.381Z,14424.00
2018-09-02T11:24:40.408Z,14456.00
2018-09-02T11:25:40.420Z,14056.00
2018-09-02T11:26:40.442Z,13388.00
2018-09-02T11:27:40.474Z,12808.00
2018-09-02T11:28:40.494Z,12576.00
2018-09-02T11:29:40.510Z,12960.00
2018-09-02T11:30:40.537Z,13964.00
2018-09-02T11:31:40.565Z,15356.00
2018-09-02T11:32:40.590Z,16424.00
2018-09-02T11:33:40.612Z,17020.00
2018-09-02T11:34:40.629Z,17144.00
2018-09-02T11:35:40.654Z,16952.00
2018-09-02T11:36:40.679Z,16548.00
2018-09-02T11:37:40.705Z,16032.00
2018-09-02T11:38:40.740Z,15500.00
2018-09-02T11:39:40.740Z,15152.00
2018-09-02T11:40:40.771Z,14952.00
2018-09-02T11:41:40.797Z,14968.00
2018-09-02T11:42:40.819Z,15228.00
2018-09-02T11:43:40.832Z,15732.00
2018-09-02T11:44:40.860Z,16280.00
2018-09-02T11:45:40.888Z,16980.00
2018-09-02T11:46:40.949Z,18112.00
2018-09-02T11:47:40.942Z,19680.00
2018-09-02T11:48:40.960Z,21856.00
2018-09-02T11:49:40.975Z,24416.00
2018-09-02T11:50:41.005Z,27360.00
2018-09-02T11:51:41.032Z,36448.00
2018-09-02T11:52:41.062Z,35072.00
2018-09-02T11:53:41.086Z,38272.00
2018-09-02T11:54:41.105Z,35744.00
2018-09-02T11:55:41.121Z,28032.00
2018-09-02T11:56:41.158Z,26016.00
2018-09-02T11:57:41.188Z,24352.00
2018-09-02T11:58:41.197Z,22912.00
2018-09-02T11:59:41.224Z,21952.00
2018-09-02T12:00:41.260Z,21312.00
2018-09-02T12:01:41.275Z,20576.00
2018-09-02T12:02:41.303Z,19968.00
2018-09-02T12:03:41.317Z,19616.00
2018-09-02T12:04:41.372Z,19360.00
2018-09-02T12:05:41.367Z,18912.00
2018-09-02T12:06:41.398Z,18464.00
2018-09-02T12:07:41.424Z,18528.00
2018-09-02T12:08:41.448Z,18944.00
2018-09-02T12:09:41.474Z,19264.00
2018-09-02T12:10:41.495Z,18944.00
2018-09-02T12:11:41.591Z,18592.00
2018-09-02T12:12:41.549Z,17304.00
2018-09-02T12:13:41.574Z,14972.00
2018-09-02T12:14:41.605Z,12248.00
2018-09-02T12:15:41.618Z,10052.00
2018-09-02T12:16:41.646Z,8492.00
2018-09-02T12:17:41.670Z,7444.00
2018-09-02T12:18:41.692Z,6748.00
2018-09-02T12:19:41.718Z,6260.00
2018-09-02T12:20:41.746Z,5900.00
2018-09-02T12:21:41.773Z,5624.00
2018-09-02T12:22:41.794Z,5400.00
2018-09-02T12:23:41.819Z,5092.00
2018-09-02T12:24:41.847Z,4688.00